sensor_id;sensor_type;location;lat;lon;timestamp;P1;durP1;ratioP1;P2;durP2;ratioP2
64885;SDS011;51514;52.206;5.114;2023-04-03T00:00:51;3.35;;;2.30;;
64885;SDS011;51514;52.206;5.114;2023-04-03T00:03:17;3.58;;;2.50;;
64885;SDS011;51514;52.206;5.114;2023-04-03T00:05:44;5.57;;;2.85;;
64885;SDS011;51514;52.206;5.114;2023-04-03T00:08:10;4.55;;;2.80;;
64885;SDS011;51514;52.206;5.114;2023-04-03T00:10:35;4.40;;;2.72;;
64885;SDS011;51514;52.206;5.114;2023-04-03T00:13:01;5.38;;;3.08;;
64885;SDS011;51514;52.206;5.114;2023-04-03T00:15:27;4.18;;;2.60;;
64885;SDS011;51514;52.206;5.114;2023-04-03T00:17:53;5.13;;;2.90;;
64885;SDS011;51514;52.206;5.114;2023-04-03T00:20:18;4.32;;;2.80;;
64885;SDS011;51514;52.206;5.114;2023-04-03T00:22:43;7.57;;;2.95;;
64885;SDS011;51514;52.206;5.114;2023-04-03T00:25:09;4.45;;;2.53;;
64885;SDS011;51514;52.206;5.114;2023-04-03T00:27:36;6.45;;;2.90;;
64885;SDS011;51514;52.206;5.114;2023-04-03T00:30:03;4.82;;;2.75;;
64885;SDS011;51514;52.206;5.114;2023-04-03T00:32:28;5.57;;;2.40;;
64885;SDS011;51514;52.206;5.114;2023-04-03T00:34:54;3.35;;;2.30;;
64885;SDS011;51514;52.206;5.114;2023-04-03T00:37:19;5.03;;;2.72;;
64885;SDS011;51514;52.206;5.114;2023-04-03T00:39:45;5.30;;;3.25;;
64885;SDS011;51514;52.206;5.114;2023-04-03T00:42:10;8.65;;;3.08;;
64885;SDS011;51514;52.206;5.114;2023-04-03T00:47:01;8.15;;;3.22;;
64885;SDS011;51514;52.206;5.114;2023-04-03T00:49:30;5.05;;;2.92;;
64885;SDS011;51514;52.206;5.114;2023-04-03T00:51:56;3.80;;;2.42;;
64885;SDS011;51514;52.206;5.114;2023-04-03T00:54:23;6.35;;;2.80;;
64885;SDS011;51514;52.206;5.114;2023-04-03T00:56:49;3.63;;;2.67;;
64885;SDS011;51514;52.206;5.114;2023-04-03T00:59:17;7.70;;;3.65;;
64885;SDS011;51514;52.206;5.114;2023-04-03T01:01:48;6.40;;;3.45;;
64885;SDS011;51514;52.206;5.114;2023-04-03T01:04:29;9.98;;;3.30;;
64885;SDS011;51514;52.206;5.114;2023-04-03T01:07:01;4.25;;;2.67;;
64885;SDS011;51514;52.206;5.114;2023-04-03T01:09:30;5.68;;;2.70;;
64885;SDS011;51514;52.206;5.114;2023-04-03T01:12:16;4.68;;;2.85;;
64885;SDS011;51514;52.206;5.114;2023-04-03T01:14:43;3.55;;;2.40;;
64885;SDS011;51514;52.206;5.114;2023-04-03T01:17:26;6.82;;;2.88;;
64885;SDS011;51514;52.206;5.114;2023-04-03T01:20:15;6.57;;;2.78;;
64885;SDS011;51514;52.206;5.114;2023-04-03T01:28:09;5.22;;;2.83;;
64885;SDS011;51514;52.206;5.114;2023-04-03T01:30:39;6.75;;;2.65;;
64885;SDS011;51514;52.206;5.114;2023-04-03T01:33:10;4.72;;;2.97;;
64885;SDS011;51514;52.206;5.114;2023-04-03T01:35:35;6.50;;;2.83;;
64885;SDS011;51514;52.206;5.114;2023-04-03T01:38:01;8.70;;;3.03;;
64885;SDS011;51514;52.206;5.114;2023-04-03T01:40:26;7.10;;;3.90;;
64885;SDS011;51514;52.206;5.114;2023-04-03T01:42:51;9.57;;;2.90;;
64885;SDS011;51514;52.206;5.114;2023-04-03T01:45:17;5.00;;;2.80;;
64885;SDS011;51514;52.206;5.114;2023-04-03T01:47:42;9.30;;;3.08;;
64885;SDS011;51514;52.206;5.114;2023-04-03T01:50:08;6.18;;;2.97;;
64885;SDS011;51514;52.206;5.114;2023-04-03T01:52:33;4.40;;;2.70;;
64885;SDS011;51514;52.206;5.114;2023-04-03T01:54:59;3.58;;;2.55;;
64885;SDS011;51514;52.206;5.114;2023-04-03T01:57:24;5.82;;;2.72;;
64885;SDS011;51514;52.206;5.114;2023-04-03T01:59:50;4.53;;;3.85;;
64885;SDS011;51514;52.206;5.114;2023-04-03T02:02:16;6.95;;;3.03;;
64885;SDS011;51514;52.206;5.114;2023-04-03T02:04:41;8.40;;;3.33;;
64885;SDS011;51514;52.206;5.114;2023-04-03T02:07:07;6.30;;;3.45;;
64885;SDS011;51514;52.206;5.114;2023-04-03T02:09:32;4.95;;;2.90;;
64885;SDS011;51514;52.206;5.114;2023-04-03T02:11:57;6.30;;;3.40;;
64885;SDS011;51514;52.206;5.114;2023-04-03T02:14:23;5.95;;;3.33;;
64885;SDS011;51514;52.206;5.114;2023-04-03T02:16:49;9.93;;;3.63;;
64885;SDS011;51514;52.206;5.114;2023-04-03T02:19:14;6.22;;;3.42;;
64885;SDS011;51514;52.206;5.114;2023-04-03T02:21:40;8.00;;;2.83;;
64885;SDS011;51514;52.206;5.114;2023-04-03T02:24:05;5.63;;;2.90;;
64885;SDS011;51514;52.206;5.114;2023-04-03T02:26:31;6.95;;;3.40;;
64885;SDS011;51514;52.206;5.114;2023-04-03T02:28:56;4.57;;;3.22;;
64885;SDS011;51514;52.206;5.114;2023-04-03T02:31:22;8.68;;;3.47;;
64885;SDS011;51514;52.206;5.114;2023-04-03T02:33:48;7.03;;;3.22;;
64885;SDS011;51514;52.206;5.114;2023-04-03T02:36:13;5.82;;;3.13;;
64885;SDS011;51514;52.206;5.114;2023-04-03T02:38:39;5.90;;;3.20;;
64885;SDS011;51514;52.206;5.114;2023-04-03T02:41:05;5.13;;;3.08;;
64885;SDS011;51514;52.206;5.114;2023-04-03T02:43:32;9.75;;;3.90;;
64885;SDS011;51514;52.206;5.114;2023-04-03T02:45:59;4.35;;;3.05;;
64885;SDS011;51514;52.206;5.114;2023-04-03T02:48:25;5.55;;;3.30;;
64885;SDS011;51514;52.206;5.114;2023-04-03T02:50:51;10.90;;;4.20;;
64885;SDS011;51514;52.206;5.114;2023-04-03T02:53:17;4.93;;;3.45;;
64885;SDS011;51514;52.206;5.114;2023-04-03T02:55:43;7.05;;;3.35;;
64885;SDS011;51514;52.206;5.114;2023-04-03T02:58:09;6.90;;;3.20;;
64885;SDS011;51514;52.206;5.114;2023-04-03T03:00:34;7.10;;;3.22;;
64885;SDS011;51514;52.206;5.114;2023-04-03T03:03:00;7.30;;;3.08;;
64885;SDS011;51514;52.206;5.114;2023-04-03T03:05:26;8.60;;;3.85;;
64885;SDS011;51514;52.206;5.114;2023-04-03T03:07:52;7.03;;;3.17;;
64885;SDS011;51514;52.206;5.114;2023-04-03T03:10:18;4.53;;;2.88;;
64885;SDS011;51514;52.206;5.114;2023-04-03T03:12:43;6.68;;;3.58;;
64885;SDS011;51514;52.206;5.114;2023-04-03T03:15:09;5.35;;;3.13;;
64885;SDS011;51514;52.206;5.114;2023-04-03T03:17:35;9.25;;;4.05;;
64885;SDS011;51514;52.206;5.114;2023-04-03T03:20:01;7.93;;;3.72;;
64885;SDS011;51514;52.206;5.114;2023-04-03T03:22:27;6.60;;;3.28;;
64885;SDS011;51514;52.206;5.114;2023-04-03T03:24:52;6.82;;;3.70;;
64885;SDS011;51514;52.206;5.114;2023-04-03T03:27:18;6.63;;;4.22;;
64885;SDS011;51514;52.206;5.114;2023-04-03T03:29:43;7.05;;;4.32;;
64885;SDS011;51514;52.206;5.114;2023-04-03T03:32:08;7.35;;;3.50;;
64885;SDS011;51514;52.206;5.114;2023-04-03T03:34:34;8.30;;;3.42;;
64885;SDS011;51514;52.206;5.114;2023-04-03T03:36:59;11.20;;;3.42;;
64885;SDS011;51514;52.206;5.114;2023-04-03T03:39:24;6.65;;;4.10;;
64885;SDS011;51514;52.206;5.114;2023-04-03T03:41:50;10.70;;;3.88;;
64885;SDS011;51514;52.206;5.114;2023-04-03T03:44:15;6.38;;;3.47;;
64885;SDS011;51514;52.206;5.114;2023-04-03T03:46:41;8.93;;;3.45;;
64885;SDS011;51514;52.206;5.114;2023-04-03T03:49:06;9.00;;;4.60;;
64885;SDS011;51514;52.206;5.114;2023-04-03T03:51:31;4.85;;;3.15;;
64885;SDS011;51514;52.206;5.114;2023-04-03T03:53:57;6.03;;;3.55;;
64885;SDS011;51514;52.206;5.114;2023-04-03T03:56:22;7.75;;;3.30;;
64885;SDS011;51514;52.206;5.114;2023-04-03T03:58:47;8.45;;;3.67;;
64885;SDS011;51514;52.206;5.114;2023-04-03T04:01:14;7.57;;;3.95;;
64885;SDS011;51514;52.206;5.114;2023-04-03T04:03:40;14.88;;;3.70;;
64885;SDS011;51514;52.206;5.114;2023-04-03T04:06:06;7.55;;;3.72;;
64885;SDS011;51514;52.206;5.114;2023-04-03T04:08:31;6.63;;;3.50;;
64885;SDS011;51514;52.206;5.114;2023-04-03T04:10:56;6.43;;;3.58;;
64885;SDS011;51514;52.206;5.114;2023-04-03T04:13:22;6.53;;;3.60;;
64885;SDS011;51514;52.206;5.114;2023-04-03T04:15:47;8.80;;;3.33;;
64885;SDS011;51514;52.206;5.114;2023-04-03T04:18:12;6.13;;;3.58;;
64885;SDS011;51514;52.206;5.114;2023-04-03T04:20:38;9.48;;;4.43;;
64885;SDS011;51514;52.206;5.114;2023-04-03T04:23:03;5.00;;;3.30;;
64885;SDS011;51514;52.206;5.114;2023-04-03T04:25:28;7.75;;;3.33;;
64885;SDS011;51514;52.206;5.114;2023-04-03T04:27:54;5.32;;;3.10;;
64885;SDS011;51514;52.206;5.114;2023-04-03T04:30:19;8.82;;;4.35;;
64885;SDS011;51514;52.206;5.114;2023-04-03T04:32:44;6.28;;;3.13;;
64885;SDS011;51514;52.206;5.114;2023-04-03T04:35:10;8.43;;;3.58;;
64885;SDS011;51514;52.206;5.114;2023-04-03T04:37:36;10.25;;;3.80;;
64885;SDS011;51514;52.206;5.114;2023-04-03T04:40:01;8.20;;;3.40;;
64885;SDS011;51514;52.206;5.114;2023-04-03T04:42:27;8.73;;;4.05;;
64885;SDS011;51514;52.206;5.114;2023-04-03T04:44:52;9.30;;;3.45;;
64885;SDS011;51514;52.206;5.114;2023-04-03T04:47:18;6.50;;;3.60;;
64885;SDS011;51514;52.206;5.114;2023-04-03T04:49:43;8.55;;;3.58;;
64885;SDS011;51514;52.206;5.114;2023-04-03T04:52:09;8.27;;;3.80;;
64885;SDS011;51514;52.206;5.114;2023-04-03T04:54:34;7.85;;;4.00;;
64885;SDS011;51514;52.206;5.114;2023-04-03T04:56:59;9.43;;;4.15;;
64885;SDS011;51514;52.206;5.114;2023-04-03T04:59:25;6.43;;;3.95;;
64885;SDS011;51514;52.206;5.114;2023-04-03T05:01:50;5.70;;;3.60;;
64885;SDS011;51514;52.206;5.114;2023-04-03T05:04:15;8.30;;;3.95;;
64885;SDS011;51514;52.206;5.114;2023-04-03T05:06:41;11.43;;;3.92;;
64885;SDS011;51514;52.206;5.114;2023-04-03T05:09:06;7.90;;;3.60;;
64885;SDS011;51514;52.206;5.114;2023-04-03T05:11:32;8.55;;;4.03;;
64885;SDS011;51514;52.206;5.114;2023-04-03T05:13:57;10.63;;;5.15;;
64885;SDS011;51514;52.206;5.114;2023-04-03T05:16:23;9.57;;;4.43;;
64885;SDS011;51514;52.206;5.114;2023-04-03T05:18:48;12.35;;;4.22;;
64885;SDS011;51514;52.206;5.114;2023-04-03T05:21:14;8.32;;;3.70;;
64885;SDS011;51514;52.206;5.114;2023-04-03T05:23:39;8.68;;;3.90;;
64885;SDS011;51514;52.206;5.114;2023-04-03T05:26:05;8.65;;;4.28;;
64885;SDS011;51514;52.206;5.114;2023-04-03T05:28:30;11.15;;;5.22;;
64885;SDS011;51514;52.206;5.114;2023-04-03T05:30:56;8.15;;;4.90;;
64885;SDS011;51514;52.206;5.114;2023-04-03T05:33:23;9.93;;;4.18;;
64885;SDS011;51514;52.206;5.114;2023-04-03T05:35:48;11.38;;;4.47;;
64885;SDS011;51514;52.206;5.114;2023-04-03T05:38:14;7.50;;;4.05;;
64885;SDS011;51514;52.206;5.114;2023-04-03T05:40:40;9.73;;;4.47;;
64885;SDS011;51514;52.206;5.114;2023-04-03T05:43:05;11.15;;;4.57;;
64885;SDS011;51514;52.206;5.114;2023-04-03T05:45:30;11.40;;;4.13;;
64885;SDS011;51514;52.206;5.114;2023-04-03T05:47:56;9.52;;;4.68;;
64885;SDS011;51514;52.206;5.114;2023-04-03T05:50:21;8.25;;;4.60;;
64885;SDS011;51514;52.206;5.114;2023-04-03T05:52:47;8.20;;;4.25;;
64885;SDS011;51514;52.206;5.114;2023-04-03T05:55:16;12.30;;;4.97;;
64885;SDS011;51514;52.206;5.114;2023-04-03T05:57:41;15.95;;;5.22;;
64885;SDS011;51514;52.206;5.114;2023-04-03T06:00:07;7.72;;;4.13;;
64885;SDS011;51514;52.206;5.114;2023-04-03T06:02:37;15.32;;;5.10;;
64885;SDS011;51514;52.206;5.114;2023-04-03T06:05:02;11.57;;;4.30;;
64885;SDS011;51514;52.206;5.114;2023-04-03T06:07:28;10.82;;;4.32;;
64885;SDS011;51514;52.206;5.114;2023-04-03T06:09:54;11.75;;;4.43;;
64885;SDS011;51514;52.206;5.114;2023-04-03T06:12:21;10.02;;;4.55;;
64885;SDS011;51514;52.206;5.114;2023-04-03T06:14:47;7.63;;;3.63;;
64885;SDS011;51514;52.206;5.114;2023-04-03T06:17:13;11.32;;;4.50;;
64885;SDS011;51514;52.206;5.114;2023-04-03T06:19:43;8.48;;;4.35;;
64885;SDS011;51514;52.206;5.114;2023-04-03T06:22:09;10.15;;;4.90;;
64885;SDS011;51514;52.206;5.114;2023-04-03T06:24:34;9.73;;;4.80;;
64885;SDS011;51514;52.206;5.114;2023-04-03T06:27:00;8.00;;;4.22;;
64885;SDS011;51514;52.206;5.114;2023-04-03T06:29:25;9.80;;;4.40;;
64885;SDS011;51514;52.206;5.114;2023-04-03T06:31:51;8.13;;;4.38;;
64885;SDS011;51514;52.206;5.114;2023-04-03T06:34:17;9.57;;;4.65;;
64885;SDS011;51514;52.206;5.114;2023-04-03T06:36:43;7.85;;;4.82;;
64885;SDS011;51514;52.206;5.114;2023-04-03T06:39:13;10.38;;;4.50;;
64885;SDS011;51514;52.206;5.114;2023-04-03T06:41:40;9.57;;;4.10;;
64885;SDS011;51514;52.206;5.114;2023-04-03T06:44:06;8.52;;;4.38;;
64885;SDS011;51514;52.206;5.114;2023-04-03T06:46:32;6.05;;;4.07;;
64885;SDS011;51514;52.206;5.114;2023-04-03T06:48:58;10.05;;;3.92;;
64885;SDS011;51514;52.206;5.114;2023-04-03T06:53:51;6.75;;;4.22;;
64885;SDS011;51514;52.206;5.114;2023-04-03T06:56:18;5.93;;;3.35;;
64885;SDS011;51514;52.206;5.114;2023-04-03T06:58:44;12.73;;;3.90;;
64885;SDS011;51514;52.206;5.114;2023-04-03T07:01:10;8.00;;;3.92;;
64885;SDS011;51514;52.206;5.114;2023-04-03T07:03:37;9.38;;;4.00;;
64885;SDS011;51514;52.206;5.114;2023-04-03T07:06:03;11.20;;;4.00;;
64885;SDS011;51514;52.206;5.114;2023-04-03T07:08:30;12.10;;;3.83;;
64885;SDS011;51514;52.206;5.114;2023-04-03T07:10:56;10.82;;;4.28;;
64885;SDS011;51514;52.206;5.114;2023-04-03T07:13:21;7.60;;;3.67;;
64885;SDS011;51514;52.206;5.114;2023-04-03T07:15:47;6.32;;;3.53;;
64885;SDS011;51514;52.206;5.114;2023-04-03T07:18:13;8.75;;;3.80;;
64885;SDS011;51514;52.206;5.114;2023-04-03T07:20:38;6.55;;;3.58;;
64885;SDS011;51514;52.206;5.114;2023-04-03T07:23:04;7.63;;;4.25;;
64885;SDS011;51514;52.206;5.114;2023-04-03T07:25:29;10.43;;;4.53;;
64885;SDS011;51514;52.206;5.114;2023-04-03T07:27:55;8.32;;;4.03;;
64885;SDS011;51514;52.206;5.114;2023-04-03T07:30:21;7.30;;;3.60;;
64885;SDS011;51514;52.206;5.114;2023-04-03T07:32:47;7.95;;;3.60;;
64885;SDS011;51514;52.206;5.114;2023-04-03T07:35:12;14.23;;;4.35;;
64885;SDS011;51514;52.206;5.114;2023-04-03T07:37:37;6.72;;;3.53;;
64885;SDS011;51514;52.206;5.114;2023-04-03T07:40:03;8.63;;;3.70;;
64885;SDS011;51514;52.206;5.114;2023-04-03T07:42:29;11.48;;;5.30;;
64885;SDS011;51514;52.206;5.114;2023-04-03T07:44:55;9.77;;;4.28;;
64885;SDS011;51514;52.206;5.114;2023-04-03T07:47:21;9.20;;;4.32;;
64885;SDS011;51514;52.206;5.114;2023-04-03T07:49:47;7.57;;;3.63;;
64885;SDS011;51514;52.206;5.114;2023-04-03T07:52:13;10.65;;;3.88;;
64885;SDS011;51514;52.206;5.114;2023-04-03T07:54:40;9.25;;;3.60;;
64885;SDS011;51514;52.206;5.114;2023-04-03T07:57:06;5.53;;;3.33;;
64885;SDS011;51514;52.206;5.114;2023-04-03T07:59:31;8.40;;;4.07;;
64885;SDS011;51514;52.206;5.114;2023-04-03T08:01:57;6.97;;;3.40;;
64885;SDS011;51514;52.206;5.114;2023-04-03T08:04:22;9.73;;;4.00;;
64885;SDS011;51514;52.206;5.114;2023-04-03T08:06:47;6.97;;;3.20;;
64885;SDS011;51514;52.206;5.114;2023-04-03T08:09:16;7.22;;;3.47;;
64885;SDS011;51514;52.206;5.114;2023-04-03T08:11:41;9.55;;;4.35;;
64885;SDS011;51514;52.206;5.114;2023-04-03T08:14:07;9.25;;;4.15;;
64885;SDS011;51514;52.206;5.114;2023-04-03T08:16:32;7.95;;;2.85;;
64885;SDS011;51514;52.206;5.114;2023-04-03T08:18:58;7.88;;;2.88;;
64885;SDS011;51514;52.206;5.114;2023-04-03T08:21:24;9.00;;;3.22;;
64885;SDS011;51514;52.206;5.114;2023-04-03T08:23:50;8.48;;;3.83;;
64885;SDS011;51514;52.206;5.114;2023-04-03T08:26:18;7.35;;;3.40;;
64885;SDS011;51514;52.206;5.114;2023-04-03T08:28:46;9.60;;;3.83;;
64885;SDS011;51514;52.206;5.114;2023-04-03T08:31:17;9.13;;;3.42;;
64885;SDS011;51514;52.206;5.114;2023-04-03T08:33:44;5.20;;;2.70;;
64885;SDS011;51514;52.206;5.114;2023-04-03T08:38:49;7.05;;;3.25;;
64885;SDS011;51514;52.206;5.114;2023-04-03T08:46:52;8.77;;;3.10;;
64885;SDS011;51514;52.206;5.114;2023-04-03T08:49:31;6.85;;;3.03;;
64885;SDS011;51514;52.206;5.114;2023-04-03T08:52:09;6.53;;;2.70;;
64885;SDS011;51514;52.206;5.114;2023-04-03T08:54:41;5.45;;;2.70;;
64885;SDS011;51514;52.206;5.114;2023-04-03T08:57:20;4.45;;;2.08;;
64885;SDS011;51514;52.206;5.114;2023-04-03T09:00:00;5.70;;;2.33;;
64885;SDS011;51514;52.206;5.114;2023-04-03T09:02:34;4.68;;;2.33;;
64885;SDS011;51514;52.206;5.114;2023-04-03T09:05:15;5.10;;;2.33;;
64885;SDS011;51514;52.206;5.114;2023-04-03T09:08:05;5.53;;;2.65;;
64885;SDS011;51514;52.206;5.114;2023-04-03T09:10:37;6.18;;;2.50;;
64885;SDS011;51514;52.206;5.114;2023-04-03T09:15:56;5.63;;;2.40;;
64885;SDS011;51514;52.206;5.114;2023-04-03T09:18:32;4.53;;;1.98;;
64885;SDS011;51514;52.206;5.114;2023-04-03T09:23:59;5.28;;;2.05;;
64885;SDS011;51514;52.206;5.114;2023-04-03T09:26:29;7.10;;;2.03;;
64885;SDS011;51514;52.206;5.114;2023-04-03T09:29:00;3.15;;;2.00;;
64885;SDS011;51514;52.206;5.114;2023-04-03T09:31:50;5.15;;;2.10;;
64885;SDS011;51514;52.206;5.114;2023-04-03T09:36:56;4.05;;;1.85;;
64885;SDS011;51514;52.206;5.114;2023-04-03T09:39:29;3.05;;;1.80;;
64885;SDS011;51514;52.206;5.114;2023-04-03T09:41:56;4.75;;;1.88;;
64885;SDS011;51514;52.206;5.114;2023-04-03T09:44:28;2.45;;;1.70;;
64885;SDS011;51514;52.206;5.114;2023-04-03T09:47:18;3.35;;;1.95;;
64885;SDS011;51514;52.206;5.114;2023-04-03T09:49:48;3.70;;;1.70;;
64885;SDS011;51514;52.206;5.114;2023-04-03T09:52:23;5.35;;;1.67;;
64885;SDS011;51514;52.206;5.114;2023-04-03T09:54:51;3.33;;;1.80;;
64885;SDS011;51514;52.206;5.114;2023-04-03T09:57:16;3.78;;;1.70;;
64885;SDS011;51514;52.206;5.114;2023-04-03T10:00:04;3.13;;;1.98;;
64885;SDS011;51514;52.206;5.114;2023-04-03T10:02:32;3.17;;;1.58;;
64885;SDS011;51514;52.206;5.114;2023-04-03T10:05:00;2.60;;;1.63;;
64885;SDS011;51514;52.206;5.114;2023-04-03T10:07:33;6.35;;;2.42;;
64885;SDS011;51514;52.206;5.114;2023-04-03T10:10:22;7.80;;;2.22;;
64885;SDS011;51514;52.206;5.114;2023-04-03T10:13:03;5.10;;;2.10;;
64885;SDS011;51514;52.206;5.114;2023-04-03T10:15:56;3.40;;;1.30;;
64885;SDS011;51514;52.206;5.114;2023-04-03T10:21:14;1.92;;;1.35;;
64885;SDS011;51514;52.206;5.114;2023-04-03T10:23:46;6.05;;;1.63;;
64885;SDS011;51514;52.206;5.114;2023-04-03T10:29:26;2.33;;;1.40;;
64885;SDS011;51514;52.206;5.114;2023-04-03T10:34:43;5.03;;;1.73;;
64885;SDS011;51514;52.206;5.114;2023-04-03T10:51:29;2.53;;;1.20;;
64885;SDS011;51514;52.206;5.114;2023-04-03T10:54:24;3.58;;;1.40;;
64885;SDS011;51514;52.206;5.114;2023-04-03T10:56:57;2.63;;;1.08;;
64885;SDS011;51514;52.206;5.114;2023-04-03T10:59:38;5.65;;;1.65;;
64885;SDS011;51514;52.206;5.114;2023-04-03T11:04:50;1.30;;;1.20;;
64885;SDS011;51514;52.206;5.114;2023-04-03T11:07:20;2.22;;;1.55;;
64885;SDS011;51514;52.206;5.114;2023-04-03T11:09:55;1.98;;;1.48;;
64885;SDS011;51514;52.206;5.114;2023-04-03T11:12:51;1.65;;;1.17;;
64885;SDS011;51514;52.206;5.114;2023-04-03T11:15:29;4.38;;;1.83;;
64885;SDS011;51514;52.206;5.114;2023-04-03T11:17:59;2.65;;;1.67;;
64885;SDS011;51514;52.206;5.114;2023-04-03T11:20:32;1.90;;;1.33;;
64885;SDS011;51514;52.206;5.114;2023-04-03T11:26:05;3.92;;;1.60;;
64885;SDS011;51514;52.206;5.114;2023-04-03T11:28:34;3.83;;;2.10;;
64885;SDS011;51514;52.206;5.114;2023-04-03T11:36:51;6.28;;;1.83;;
64885;SDS011;51514;52.206;5.114;2023-04-03T11:42:12;3.03;;;1.75;;
64885;SDS011;51514;52.206;5.114;2023-04-03T11:44:40;2.53;;;1.58;;
64885;SDS011;51514;52.206;5.114;2023-04-03T11:47:07;3.30;;;1.50;;
64885;SDS011;51514;52.206;5.114;2023-04-03T12:21:18;3.13;;;1.75;;
64885;SDS011;51514;52.206;5.114;2023-04-03T12:24:22;1.65;;;1.55;;
64885;SDS011;51514;52.206;5.114;2023-04-03T12:29:20;2.83;;;1.50;;
64885;SDS011;51514;52.206;5.114;2023-04-03T12:32:07;3.78;;;1.50;;
64885;SDS011;51514;52.206;5.114;2023-04-03T12:40:25;2.08;;;1.40;;
64885;SDS011;51514;52.206;5.114;2023-04-03T12:45:23;3.75;;;1.83;;
64885;SDS011;51514;52.206;5.114;2023-04-03T12:47:51;3.60;;;1.45;;
64885;SDS011;51514;52.206;5.114;2023-04-03T12:50:27;2.72;;;1.42;;
64885;SDS011;51514;52.206;5.114;2023-04-03T12:53:06;2.58;;;1.55;;
64885;SDS011;51514;52.206;5.114;2023-04-03T12:55:37;3.25;;;1.75;;
64885;SDS011;51514;52.206;5.114;2023-04-03T13:01:04;2.85;;;1.88;;
64885;SDS011;51514;52.206;5.114;2023-04-03T13:03:37;3.13;;;1.83;;
64885;SDS011;51514;52.206;5.114;2023-04-03T13:06:04;2.33;;;1.92;;
64885;SDS011;51514;52.206;5.114;2023-04-03T13:08:30;5.57;;;2.13;;
64885;SDS011;51514;52.206;5.114;2023-04-03T13:11:07;2.90;;;1.58;;
64885;SDS011;51514;52.206;5.114;2023-04-03T13:13:36;3.30;;;1.80;;
64885;SDS011;51514;52.206;5.114;2023-04-03T13:16:10;3.45;;;1.77;;
64885;SDS011;51514;52.206;5.114;2023-04-03T13:18:36;3.10;;;1.85;;
64885;SDS011;51514;52.206;5.114;2023-04-03T13:21:15;4.63;;;1.90;;
64885;SDS011;51514;52.206;5.114;2023-04-03T13:23:45;3.05;;;1.80;;
64885;SDS011;51514;52.206;5.114;2023-04-03T13:26:15;2.50;;;1.88;;
64885;SDS011;51514;52.206;5.114;2023-04-03T13:28:42;4.93;;;2.60;;
64885;SDS011;51514;52.206;5.114;2023-04-03T13:33:38;3.50;;;2.00;;
64885;SDS011;51514;52.206;5.114;2023-04-03T13:36:25;3.22;;;1.73;;
64885;SDS011;51514;52.206;5.114;2023-04-03T13:39:05;4.35;;;1.88;;
64885;SDS011;51514;52.206;5.114;2023-04-03T13:41:38;4.00;;;2.00;;
64885;SDS011;51514;52.206;5.114;2023-04-03T13:52:01;2.28;;;1.80;;
64885;SDS011;51514;52.206;5.114;2023-04-03T13:54:45;3.30;;;1.80;;
64885;SDS011;51514;52.206;5.114;2023-04-03T13:57:13;4.45;;;2.03;;
64885;SDS011;51514;52.206;5.114;2023-04-03T13:59:40;3.53;;;1.90;;
64885;SDS011;51514;52.206;5.114;2023-04-03T14:02:10;3.63;;;2.30;;
64885;SDS011;51514;52.206;5.114;2023-04-03T14:07:05;2.20;;;1.55;;
64885;SDS011;51514;52.206;5.114;2023-04-03T14:09:31;3.72;;;2.00;;
64885;SDS011;51514;52.206;5.114;2023-04-03T14:11:58;4.93;;;2.00;;
64885;SDS011;51514;52.206;5.114;2023-04-03T14:14:30;3.42;;;1.92;;
64885;SDS011;51514;52.206;5.114;2023-04-03T14:16:59;4.43;;;2.20;;
64885;SDS011;51514;52.206;5.114;2023-04-03T14:19:28;3.40;;;2.10;;
64885;SDS011;51514;52.206;5.114;2023-04-03T14:21:55;1.98;;;1.52;;
64885;SDS011;51514;52.206;5.114;2023-04-03T14:24:21;2.95;;;2.03;;
64885;SDS011;51514;52.206;5.114;2023-04-03T14:26:48;4.68;;;1.95;;
64885;SDS011;51514;52.206;5.114;2023-04-03T14:29:15;3.15;;;1.50;;
64885;SDS011;51514;52.206;5.114;2023-04-03T14:31:41;3.22;;;2.25;;
64885;SDS011;51514;52.206;5.114;2023-04-03T14:34:09;5.70;;;2.28;;
64885;SDS011;51514;52.206;5.114;2023-04-03T14:36:36;5.18;;;2.30;;
64885;SDS011;51514;52.206;5.114;2023-04-03T14:39:03;3.35;;;1.73;;
64885;SDS011;51514;52.206;5.114;2023-04-03T14:41:30;5.45;;;2.00;;
64885;SDS011;51514;52.206;5.114;2023-04-03T14:43:55;3.55;;;1.95;;
64885;SDS011;51514;52.206;5.114;2023-04-03T14:49:01;3.75;;;2.20;;
64885;SDS011;51514;52.206;5.114;2023-04-03T14:51:27;4.32;;;2.10;;
64885;SDS011;51514;52.206;5.114;2023-04-03T14:53:52;5.28;;;2.95;;
64885;SDS011;51514;52.206;5.114;2023-04-03T14:56:23;3.63;;;2.10;;
64885;SDS011;51514;52.206;5.114;2023-04-03T14:58:54;5.43;;;2.30;;
64885;SDS011;51514;52.206;5.114;2023-04-03T15:01:22;6.05;;;2.72;;
64885;SDS011;51514;52.206;5.114;2023-04-03T15:03:47;7.45;;;2.72;;
64885;SDS011;51514;52.206;5.114;2023-04-03T15:06:13;4.38;;;2.15;;
64885;SDS011;51514;52.206;5.114;2023-04-03T15:08:40;3.22;;;2.20;;
64885;SDS011;51514;52.206;5.114;2023-04-03T15:11:07;5.97;;;2.30;;
64885;SDS011;51514;52.206;5.114;2023-04-03T15:13:34;4.97;;;2.13;;
64885;SDS011;51514;52.206;5.114;2023-04-03T15:16:00;5.10;;;2.60;;
64885;SDS011;51514;52.206;5.114;2023-04-03T15:18:26;6.15;;;2.88;;
64885;SDS011;51514;52.206;5.114;2023-04-03T15:20:53;6.32;;;2.22;;
64885;SDS011;51514;52.206;5.114;2023-04-03T15:23:19;5.70;;;2.20;;
64885;SDS011;51514;52.206;5.114;2023-04-03T15:25:50;4.30;;;2.53;;
64885;SDS011;51514;52.206;5.114;2023-04-03T15:28:18;3.08;;;2.03;;
64885;SDS011;51514;52.206;5.114;2023-04-03T15:30:48;4.90;;;2.05;;
64885;SDS011;51514;52.206;5.114;2023-04-03T15:33:13;4.88;;;2.10;;
64885;SDS011;51514;52.206;5.114;2023-04-03T15:35:40;3.85;;;2.05;;
64885;SDS011;51514;52.206;5.114;2023-04-03T15:38:06;4.30;;;2.20;;
64885;SDS011;51514;52.206;5.114;2023-04-03T15:40:31;2.83;;;2.25;;
64885;SDS011;51514;52.206;5.114;2023-04-03T15:42:57;4.90;;;2.30;;
64885;SDS011;51514;52.206;5.114;2023-04-03T15:45:22;6.35;;;2.75;;
64885;SDS011;51514;52.206;5.114;2023-04-03T15:47:48;4.22;;;2.03;;
64885;SDS011;51514;52.206;5.114;2023-04-03T15:50:13;3.50;;;1.83;;
64885;SDS011;51514;52.206;5.114;2023-04-03T15:52:39;4.65;;;2.28;;
64885;SDS011;51514;52.206;5.114;2023-04-03T15:55:04;4.55;;;2.25;;
64885;SDS011;51514;52.206;5.114;2023-04-03T15:57:31;5.32;;;2.30;;
64885;SDS011;51514;52.206;5.114;2023-04-03T15:59:56;6.72;;;2.17;;
64885;SDS011;51514;52.206;5.114;2023-04-03T16:02:21;5.20;;;3.22;;
64885;SDS011;51514;52.206;5.114;2023-04-03T16:04:47;7.05;;;2.38;;
64885;SDS011;51514;52.206;5.114;2023-04-03T16:07:13;8.30;;;2.63;;
64885;SDS011;51514;52.206;5.114;2023-04-03T16:09:38;6.72;;;2.60;;
64885;SDS011;51514;52.206;5.114;2023-04-03T16:12:04;6.93;;;2.70;;
64885;SDS011;51514;52.206;5.114;2023-04-03T16:14:29;6.28;;;2.50;;
64885;SDS011;51514;52.206;5.114;2023-04-03T16:16:55;6.07;;;2.35;;
64885;SDS011;51514;52.206;5.114;2023-04-03T16:19:22;6.47;;;2.80;;
64885;SDS011;51514;52.206;5.114;2023-04-03T16:21:47;4.22;;;2.22;;
64885;SDS011;51514;52.206;5.114;2023-04-03T16:24:13;4.45;;;2.38;;
64885;SDS011;51514;52.206;5.114;2023-04-03T16:26:38;4.05;;;2.05;;
64885;SDS011;51514;52.206;5.114;2023-04-03T16:29:04;5.00;;;2.60;;
64885;SDS011;51514;52.206;5.114;2023-04-03T16:31:29;6.93;;;3.30;;
64885;SDS011;51514;52.206;5.114;2023-04-03T16:33:58;4.72;;;2.60;;
64885;SDS011;51514;52.206;5.114;2023-04-03T16:36:24;6.47;;;2.40;;
64885;SDS011;51514;52.206;5.114;2023-04-03T16:38:50;6.50;;;2.50;;
64885;SDS011;51514;52.206;5.114;2023-04-03T16:41:16;4.80;;;2.60;;
64885;SDS011;51514;52.206;5.114;2023-04-03T16:43:41;5.85;;;2.40;;
64885;SDS011;51514;52.206;5.114;2023-04-03T16:46:07;6.57;;;2.65;;
64885;SDS011;51514;52.206;5.114;2023-04-03T16:48:32;3.53;;;2.10;;
64885;SDS011;51514;52.206;5.114;2023-04-03T16:50:58;4.90;;;2.00;;
64885;SDS011;51514;52.206;5.114;2023-04-03T16:53:23;5.78;;;2.13;;
64885;SDS011;51514;52.206;5.114;2023-04-03T16:55:50;4.45;;;2.30;;